sensor_id;sensor_type;location;lat;lon;timestamp;temperature;humidity
7196;DHT22;3639;51.308;5.624;2023-03-14T00:00:33;11.90;99.90
7196;DHT22;3639;51.308;5.624;2023-03-14T00:02:59;11.90;99.90
7196;DHT22;3639;51.308;5.624;2023-03-14T00:05:25;11.90;99.90
7196;DHT22;3639;51.308;5.624;2023-03-14T00:07:51;11.90;99.90
7196;DHT22;3639;51.308;5.624;2023-03-14T00:10:16;11.90;99.90
7196;DHT22;3639;51.308;5.624;2023-03-14T00:12:43;11.80;99.90
7196;DHT22;3639;51.308;5.624;2023-03-14T00:15:10;11.90;99.90
7196;DHT22;3639;51.308;5.624;2023-03-14T00:17:36;11.90;99.90
7196;DHT22;3639;51.308;5.624;2023-03-14T00:20:03;11.90;99.90
7196;DHT22;3639;51.308;5.624;2023-03-14T00:22:39;11.90;99.90
7196;DHT22;3639;51.308;5.624;2023-03-14T00:25:06;11.90;99.90
7196;DHT22;3639;51.308;5.624;2023-03-14T00:27:32;11.80;99.90
7196;DHT22;3639;51.308;5.624;2023-03-14T00:29:58;11.80;99.90
7196;DHT22;3639;51.308;5.624;2023-03-14T00:32:24;11.80;99.90
7196;DHT22;3639;51.308;5.624;2023-03-14T00:34:50;11.70;99.90
7196;DHT22;3639;51.308;5.624;2023-03-14T00:37:15;11.70;99.90
7196;DHT22;3639;51.308;5.624;2023-03-14T00:39:41;11.70;99.90
7196;DHT22;3639;51.308;5.624;2023-03-14T00:42:06;11.60;99.90
7196;DHT22;3639;51.308;5.624;2023-03-14T00:44:32;11.60;99.90
7196;DHT22;3639;51.308;5.624;2023-03-14T00:46:58;11.50;99.90
7196;DHT22;3639;51.308;5.624;2023-03-14T00:49:24;11.60;99.90
7196;DHT22;3639;51.308;5.624;2023-03-14T00:51:50;11.60;99.90
7196;DHT22;3639;51.308;5.624;2023-03-14T00:54:17;11.60;99.90
7196;DHT22;3639;51.308;5.624;2023-03-14T00:56:43;11.50;99.90
7196;DHT22;3639;51.308;5.624;2023-03-14T00:59:09;11.50;99.90
7196;DHT22;3639;51.308;5.624;2023-03-14T01:01:34;11.30;99.90
7196;DHT22;3639;51.308;5.624;2023-03-14T01:04:02;11.40;99.90
7196;DHT22;3639;51.308;5.624;2023-03-14T01:06:29;11.30;99.90
7196;DHT22;3639;51.308;5.624;2023-03-14T01:08:55;11.30;99.90
7196;DHT22;3639;51.308;5.624;2023-03-14T01:11:28;11.30;99.90
7196;DHT22;3639;51.308;5.624;2023-03-14T01:13:55;11.30;99.90
7196;DHT22;3639;51.308;5.624;2023-03-14T01:16:23;11.30;99.90
7196;DHT22;3639;51.308;5.624;2023-03-14T01:18:49;11.20;99.90
7196;DHT22;3639;51.308;5.624;2023-03-14T01:21:27;11.20;99.90
7196;DHT22;3639;51.308;5.624;2023-03-14T01:23:55;11.10;99.90
7196;DHT22;3639;51.308;5.624;2023-03-14T01:26:23;11.10;99.90
7196;DHT22;3639;51.308;5.624;2023-03-14T01:28:51;11.10;99.90
7196;DHT22;3639;51.308;5.624;2023-03-14T01:31:17;11.00;99.90
7196;DHT22;3639;51.308;5.624;2023-03-14T01:33:44;11.00;99.90
7196;DHT22;3639;51.308;5.624;2023-03-14T01:36:10;10.90;99.90
7196;DHT22;3639;51.308;5.624;2023-03-14T01:38:37;10.90;99.90
7196;DHT22;3639;51.308;5.624;2023-03-14T01:41:03;10.80;99.90
7196;DHT22;3639;51.308;5.624;2023-03-14T01:43:29;10.70;99.90
7196;DHT22;3639;51.308;5.624;2023-03-14T01:48:57;10.60;99.90
7196;DHT22;3639;51.308;5.624;2023-03-14T01:54:25;10.60;99.90
7196;DHT22;3639;51.308;5.624;2023-03-14T01:57:01;10.50;99.90
7196;DHT22;3639;51.308;5.624;2023-03-14T01:59:30;10.40;99.90
7196;DHT22;3639;51.308;5.624;2023-03-14T02:01:57;10.50;99.90
7196;DHT22;3639;51.308;5.624;2023-03-14T02:04:23;10.50;99.90
7196;DHT22;3639;51.308;5.624;2023-03-14T02:07:35;10.40;99.90
7196;DHT22;3639;51.308;5.624;2023-03-14T02:09:41;10.40;99.90
7196;DHT22;3639;51.308;5.624;2023-03-14T02:12:08;10.40;99.90
7196;DHT22;3639;51.308;5.624;2023-03-14T02:14:36;10.40;99.90
7196;DHT22;3639;51.308;5.624;2023-03-14T02:17:05;10.40;99.90
7196;DHT22;3639;51.308;5.624;2023-03-14T02:19:46;10.40;99.90
7196;DHT22;3639;51.308;5.624;2023-03-14T02:22:15;10.40;99.90
7196;DHT22;3639;51.308;5.624;2023-03-14T02:27:22;10.40;99.90
7196;DHT22;3639;51.308;5.624;2023-03-14T02:29:54;10.40;99.90
7196;DHT22;3639;51.308;5.624;2023-03-14T02:32:23;10.40;99.90
7196;DHT22;3639;51.308;5.624;2023-03-14T02:34:55;10.50;99.90
7196;DHT22;3639;51.308;5.624;2023-03-14T02:37:23;10.50;99.90
7196;DHT22;3639;51.308;5.624;2023-03-14T02:39:50;10.50;99.90
7196;DHT22;3639;51.308;5.624;2023-03-14T02:42:16;10.40;99.90
7196;DHT22;3639;51.308;5.624;2023-03-14T02:44:52;10.40;99.90
7196;DHT22;3639;51.308;5.624;2023-03-14T02:47:21;10.40;99.90
7196;DHT22;3639;51.308;5.624;2023-03-14T02:49:48;10.40;99.90
7196;DHT22;3639;51.308;5.624;2023-03-14T02:52:13;10.40;99.90
7196;DHT22;3639;51.308;5.624;2023-03-14T02:54:39;10.50;99.90
7196;DHT22;3639;51.308;5.624;2023-03-14T02:57:04;10.40;99.90
7196;DHT22;3639;51.308;5.624;2023-03-14T02:59:30;10.40;99.90
7196;DHT22;3639;51.308;5.624;2023-03-14T03:01:56;10.40;99.90
7196;DHT22;3639;51.308;5.624;2023-03-14T03:04:21;10.40;99.90
7196;DHT22;3639;51.308;5.624;2023-03-14T03:06:47;10.40;99.90
7196;DHT22;3639;51.308;5.624;2023-03-14T03:09:12;10.40;99.90
7196;DHT22;3639;51.308;5.624;2023-03-14T03:11:38;10.30;99.90
7196;DHT22;3639;51.308;5.624;2023-03-14T03:14:03;10.30;99.90
7196;DHT22;3639;51.308;5.624;2023-03-14T03:16:29;10.30;99.90
7196;DHT22;3639;51.308;5.624;2023-03-14T03:18:55;10.40;99.90
7196;DHT22;3639;51.308;5.624;2023-03-14T03:21:20;10.40;99.90
7196;DHT22;3639;51.308;5.624;2023-03-14T03:23:49;10.40;99.90
7196;DHT22;3639;51.308;5.624;2023-03-14T03:26:14;10.50;99.90
7196;DHT22;3639;51.308;5.624;2023-03-14T03:28:40;10.50;99.90
7196;DHT22;3639;51.308;5.624;2023-03-14T03:31:10;10.50;99.90
7196;DHT22;3639;51.308;5.624;2023-03-14T03:33:36;10.40;99.90
7196;DHT22;3639;51.308;5.624;2023-03-14T03:36:02;10.40;99.90
7196;DHT22;3639;51.308;5.624;2023-03-14T03:38:28;10.40;99.90
7196;DHT22;3639;51.308;5.624;2023-03-14T03:40:54;10.40;99.90
7196;DHT22;3639;51.308;5.624;2023-03-14T03:43:19;10.30;99.90
7196;DHT22;3639;51.308;5.624;2023-03-14T03:45:45;10.20;99.90
7196;DHT22;3639;51.308;5.624;2023-03-14T03:48:10;10.20;99.90
7196;DHT22;3639;51.308;5.624;2023-03-14T03:50:36;10.20;99.90
7196;DHT22;3639;51.308;5.624;2023-03-14T03:53:02;10.20;99.90
7196;DHT22;3639;51.308;5.624;2023-03-14T03:55:27;10.10;99.90
7196;DHT22;3639;51.308;5.624;2023-03-14T03:57:54;10.10;99.90
7196;DHT22;3639;51.308;5.624;2023-03-14T04:00:19;10.00;99.90
7196;DHT22;3639;51.308;5.624;2023-03-14T04:02:45;9.80;99.90
7196;DHT22;3639;51.308;5.624;2023-03-14T04:05:10;9.70;99.90
7196;DHT22;3639;51.308;5.624;2023-03-14T04:07:36;9.60;99.90
7196;DHT22;3639;51.308;5.624;2023-03-14T04:10:02;9.50;99.90
7196;DHT22;3639;51.308;5.624;2023-03-14T04:12:27;9.40;99.90
7196;DHT22;3639;51.308;5.624;2023-03-14T04:14:53;9.30;99.90
7196;DHT22;3639;51.308;5.624;2023-03-14T04:17:18;9.30;99.90
7196;DHT22;3639;51.308;5.624;2023-03-14T04:19:44;9.30;99.90
7196;DHT22;3639;51.308;5.624;2023-03-14T04:22:10;9.30;99.90
7196;DHT22;3639;51.308;5.624;2023-03-14T04:24:35;9.30;99.90
7196;DHT22;3639;51.308;5.624;2023-03-14T04:27:01;9.20;99.90
7196;DHT22;3639;51.308;5.624;2023-03-14T04:29:26;9.20;99.90
7196;DHT22;3639;51.308;5.624;2023-03-14T04:31:52;9.10;99.90
7196;DHT22;3639;51.308;5.624;2023-03-14T04:34:18;9.20;99.90
7196;DHT22;3639;51.308;5.624;2023-03-14T04:36:43;9.20;99.90
7196;DHT22;3639;51.308;5.624;2023-03-14T04:39:09;9.20;99.90
7196;DHT22;3639;51.308;5.624;2023-03-14T04:41:34;9.20;99.90
7196;DHT22;3639;51.308;5.624;2023-03-14T04:44:00;9.20;99.90
7196;DHT22;3639;51.308;5.624;2023-03-14T04:46:26;9.20;99.90
7196;DHT22;3639;51.308;5.624;2023-03-14T04:48:51;9.30;99.90
7196;DHT22;3639;51.308;5.624;2023-03-14T04:51:17;9.20;99.90
7196;DHT22;3639;51.308;5.624;2023-03-14T04:53:42;9.30;99.90
7196;DHT22;3639;51.308;5.624;2023-03-14T04:56:08;9.30;99.90
7196;DHT22;3639;51.308;5.624;2023-03-14T04:58:34;9.40;99.90
7196;DHT22;3639;51.308;5.624;2023-03-14T05:01:04;9.40;99.90
7196;DHT22;3639;51.308;5.624;2023-03-14T05:03:30;9.40;99.90
7196;DHT22;3639;51.308;5.624;2023-03-14T05:05:56;9.50;99.90
7196;DHT22;3639;51.308;5.624;2023-03-14T05:08:22;9.50;99.90
7196;DHT22;3639;51.308;5.624;2023-03-14T05:10:55;9.50;99.90
7196;DHT22;3639;51.308;5.624;2023-03-14T05:13:21;9.50;99.90
7196;DHT22;3639;51.308;5.624;2023-03-14T05:15:48;9.50;99.90
7196;DHT22;3639;51.308;5.624;2023-03-14T05:18:14;9.50;99.90
7196;DHT22;3639;51.308;5.624;2023-03-14T05:20:39;9.50;99.90
7196;DHT22;3639;51.308;5.624;2023-03-14T05:23:05;9.50;99.90
7196;DHT22;3639;51.308;5.624;2023-03-14T05:25:31;9.60;99.90
7196;DHT22;3639;51.308;5.624;2023-03-14T05:27:56;9.60;99.90
7196;DHT22;3639;51.308;5.624;2023-03-14T05:30:22;9.60;99.90
7196;DHT22;3639;51.308;5.624;2023-03-14T05:32:48;9.70;99.90
7196;DHT22;3639;51.308;5.624;2023-03-14T05:35:13;9.70;99.90
7196;DHT22;3639;51.308;5.624;2023-03-14T05:37:39;9.70;99.90
7196;DHT22;3639;51.308;5.624;2023-03-14T05:40:06;9.70;99.90
7196;DHT22;3639;51.308;5.624;2023-03-14T05:42:32;9.70;99.90
7196;DHT22;3639;51.308;5.624;2023-03-14T05:44:58;9.70;99.90
7196;DHT22;3639;51.308;5.624;2023-03-14T05:47:24;9.80;99.90
7196;DHT22;3639;51.308;5.624;2023-03-14T05:49:50;9.70;99.90
7196;DHT22;3639;51.308;5.624;2023-03-14T05:52:15;9.70;99.90
7196;DHT22;3639;51.308;5.624;2023-03-14T05:54:41;9.70;99.90
7196;DHT22;3639;51.308;5.624;2023-03-14T05:57:07;9.80;99.90
7196;DHT22;3639;51.308;5.624;2023-03-14T05:59:32;9.80;99.90
7196;DHT22;3639;51.308;5.624;2023-03-14T06:01:58;9.80;99.90
7196;DHT22;3639;51.308;5.624;2023-03-14T06:04:24;9.80;99.90
7196;DHT22;3639;51.308;5.624;2023-03-14T06:06:50;9.80;99.90
7196;DHT22;3639;51.308;5.624;2023-03-14T06:09:15;9.80;99.90
7196;DHT22;3639;51.308;5.624;2023-03-14T06:11:41;9.70;99.90
7196;DHT22;3639;51.308;5.624;2023-03-14T06:14:07;9.80;99.90
7196;DHT22;3639;51.308;5.624;2023-03-14T06:16:33;9.70;99.90
7196;DHT22;3639;51.308;5.624;2023-03-14T06:18:58;9.70;99.90
7196;DHT22;3639;51.308;5.624;2023-03-14T06:21:25;9.80;99.90
7196;DHT22;3639;51.308;5.624;2023-03-14T06:23:50;9.80;99.90
7196;DHT22;3639;51.308;5.624;2023-03-14T06:26:16;9.80;99.90
7196;DHT22;3639;51.308;5.624;2023-03-14T06:28:42;9.80;99.90
7196;DHT22;3639;51.308;5.624;2023-03-14T06:31:07;9.80;99.90
7196;DHT22;3639;51.308;5.624;2023-03-14T06:33:33;9.80;99.90
7196;DHT22;3639;51.308;5.624;2023-03-14T06:35:58;9.80;99.90
7196;DHT22;3639;51.308;5.624;2023-03-14T06:38:24;9.90;99.90
7196;DHT22;3639;51.308;5.624;2023-03-14T06:40:50;9.90;99.90
7196;DHT22;3639;51.308;5.624;2023-03-14T06:43:15;9.90;99.90
7196;DHT22;3639;51.308;5.624;2023-03-14T06:45:41;10.00;99.90
7196;DHT22;3639;51.308;5.624;2023-03-14T06:48:06;10.00;99.90
7196;DHT22;3639;51.308;5.624;2023-03-14T06:50:32;10.00;99.90
7196;DHT22;3639;51.308;5.624;2023-03-14T06:52:58;10.00;99.90
7196;DHT22;3639;51.308;5.624;2023-03-14T06:55:23;10.00;99.90
7196;DHT22;3639;51.308;5.624;2023-03-14T06:57:49;10.00;99.90
7196;DHT22;3639;51.308;5.624;2023-03-14T07:00:15;10.00;99.90
7196;DHT22;3639;51.308;5.624;2023-03-14T07:02:41;10.00;99.90
7196;DHT22;3639;51.308;5.624;2023-03-14T07:05:06;10.10;99.90
7196;DHT22;3639;51.308;5.624;2023-03-14T07:07:32;10.20;99.90
7196;DHT22;3639;51.308;5.624;2023-03-14T07:09:58;10.20;99.90
7196;DHT22;3639;51.308;5.624;2023-03-14T07:12:24;10.40;99.90
7196;DHT22;3639;51.308;5.624;2023-03-14T07:14:49;10.50;99.90
7196;DHT22;3639;51.308;5.624;2023-03-14T07:17:15;10.50;99.90
7196;DHT22;3639;51.308;5.624;2023-03-14T07:19:40;10.50;99.90
7196;DHT22;3639;51.308;5.624;2023-03-14T07:22:06;10.60;99.90
7196;DHT22;3639;51.308;5.624;2023-03-14T07:24:32;10.50;99.90
7196;DHT22;3639;51.308;5.624;2023-03-14T07:26:57;10.60;99.90
7196;DHT22;3639;51.308;5.624;2023-03-14T07:29:23;10.60;99.90
7196;DHT22;3639;51.308;5.624;2023-03-14T07:31:49;10.60;99.90
7196;DHT22;3639;51.308;5.624;2023-03-14T07:34:14;10.70;99.90
7196;DHT22;3639;51.308;5.624;2023-03-14T07:36:40;10.70;99.90
7196;DHT22;3639;51.308;5.624;2023-03-14T07:39:06;10.70;99.90
7196;DHT22;3639;51.308;5.624;2023-03-14T07:41:32;10.70;99.90
7196;DHT22;3639;51.308;5.624;2023-03-14T07:43:58;10.60;99.90
7196;DHT22;3639;51.308;5.624;2023-03-14T07:46:23;10.60;99.90
7196;DHT22;3639;51.308;5.624;2023-03-14T07:48:49;10.60;99.90
7196;DHT22;3639;51.308;5.624;2023-03-14T07:51:14;10.50;99.90
7196;DHT22;3639;51.308;5.624;2023-03-14T07:53:40;10.40;99.90
7196;DHT22;3639;51.308;5.624;2023-03-14T07:56:06;10.40;99.90
7196;DHT22;3639;51.308;5.624;2023-03-14T07:58:32;10.30;99.90
7196;DHT22;3639;51.308;5.624;2023-03-14T08:00:58;10.00;99.90
7196;DHT22;3639;51.308;5.624;2023-03-14T08:03:24;9.60;99.90
7196;DHT22;3639;51.308;5.624;2023-03-14T08:05:50;9.10;99.90
7196;DHT22;3639;51.308;5.624;2023-03-14T08:08:16;8.90;99.90
7196;DHT22;3639;51.308;5.624;2023-03-14T08:10:42;8.70;99.90
7196;DHT22;3639;51.308;5.624;2023-03-14T08:13:08;8.60;99.90
7196;DHT22;3639;51.308;5.624;2023-03-14T08:15:34;8.50;99.90
7196;DHT22;3639;51.308;5.624;2023-03-14T08:18:00;8.50;99.90
7196;DHT22;3639;51.308;5.624;2023-03-14T08:20:28;8.50;99.90
7196;DHT22;3639;51.308;5.624;2023-03-14T08:22:58;8.40;99.90
7196;DHT22;3639;51.308;5.624;2023-03-14T08:25:25;8.40;99.90
7196;DHT22;3639;51.308;5.624;2023-03-14T08:27:50;8.40;99.90
7196;DHT22;3639;51.308;5.624;2023-03-14T08:30:18;8.40;99.90
7196;DHT22;3639;51.308;5.624;2023-03-14T08:32:43;8.30;99.90
7196;DHT22;3639;51.308;5.624;2023-03-14T08:35:10;8.30;99.90
7196;DHT22;3639;51.308;5.624;2023-03-14T08:37:36;8.30;99.90
7196;DHT22;3639;51.308;5.624;2023-03-14T08:40:03;8.20;99.90
7196;DHT22;3639;51.308;5.624;2023-03-14T08:42:38;8.20;99.90
7196;DHT22;3639;51.308;5.624;2023-03-14T08:45:05;8.20;99.90
7196;DHT22;3639;51.308;5.624;2023-03-14T08:47:31;8.10;99.90
7196;DHT22;3639;51.308;5.624;2023-03-14T08:49:56;8.10;99.90
7196;DHT22;3639;51.308;5.624;2023-03-14T08:52:22;8.00;99.90
7196;DHT22;3639;51.308;5.624;2023-03-14T08:54:48;8.00;99.90
7196;DHT22;3639;51.308;5.624;2023-03-14T08:57:14;8.00;99.90
7196;DHT22;3639;51.308;5.624;2023-03-14T08:59:40;8.00;99.90
7196;DHT22;3639;51.308;5.624;2023-03-14T09:02:05;8.00;99.90
7196;DHT22;3639;51.308;5.624;2023-03-14T09:04:32;8.00;99.90
7196;DHT22;3639;51.308;5.624;2023-03-14T09:06:58;8.00;99.90
7196;DHT22;3639;51.308;5.624;2023-03-14T09:09:25;8.10;99.90
7196;DHT22;3639;51.308;5.624;2023-03-14T09:11:52;8.20;99.90
7196;DHT22;3639;51.308;5.624;2023-03-14T09:14:18;8.30;99.90
7196;DHT22;3639;51.308;5.624;2023-03-14T09:16:43;8.40;99.90
7196;DHT22;3639;51.308;5.624;2023-03-14T09:19:09;8.40;99.90
7196;DHT22;3639;51.308;5.624;2023-03-14T09:21:35;8.50;99.90
7196;DHT22;3639;51.308;5.624;2023-03-14T09:24:00;8.40;99.90
7196;DHT22;3639;51.308;5.624;2023-03-14T09:26:26;8.30;99.90
7196;DHT22;3639;51.308;5.624;2023-03-14T09:28:52;8.30;99.90
7196;DHT22;3639;51.308;5.624;2023-03-14T09:31:17;8.30;99.90
7196;DHT22;3639;51.308;5.624;2023-03-14T09:33:43;8.30;99.90
7196;DHT22;3639;51.308;5.624;2023-03-14T09:36:10;8.40;99.90
7196;DHT22;3639;51.308;5.624;2023-03-14T09:38:36;8.40;99.90
7196;DHT22;3639;51.308;5.624;2023-03-14T09:41:33;8.30;99.90
7196;DHT22;3639;51.308;5.624;2023-03-14T09:44:06;8.30;99.90
7196;DHT22;3639;51.308;5.624;2023-03-14T09:46:36;8.30;99.90
7196;DHT22;3639;51.308;5.624;2023-03-14T09:49:12;8.30;99.90
7196;DHT22;3639;51.308;5.624;2023-03-14T09:51:40;8.40;99.90
7196;DHT22;3639;51.308;5.624;2023-03-14T09:57:24;8.60;99.90
7196;DHT22;3639;51.308;5.624;2023-03-14T09:59:51;8.70;99.90
7196;DHT22;3639;51.308;5.624;2023-03-14T10:02:23;8.70;99.90
7196;DHT22;3639;51.308;5.624;2023-03-14T10:04:52;8.80;99.90
7196;DHT22;3639;51.308;5.624;2023-03-14T10:07:25;8.80;99.90
7196;DHT22;3639;51.308;5.624;2023-03-14T10:09:52;8.70;99.90
7196;DHT22;3639;51.308;5.624;2023-03-14T10:12:18;8.40;99.90
7196;DHT22;3639;51.308;5.624;2023-03-14T10:14:52;8.20;99.90
7196;DHT22;3639;51.308;5.624;2023-03-14T10:17:19;8.00;99.90
7196;DHT22;3639;51.308;5.624;2023-03-14T10:19:57;7.80;99.90
7196;DHT22;3639;51.308;5.624;2023-03-14T10:22:26;7.70;99.90
7196;DHT22;3639;51.308;5.624;2023-03-14T10:24:55;7.60;99.90
7196;DHT22;3639;51.308;5.624;2023-03-14T10:27:28;7.40;99.90
7196;DHT22;3639;51.308;5.624;2023-03-14T10:29:57;7.30;99.90
7196;DHT22;3639;51.308;5.624;2023-03-14T10:32:29;7.20;99.90
7196;DHT22;3639;51.308;5.624;2023-03-14T10:40:19;7.30;99.90
7196;DHT22;3639;51.308;5.624;2023-03-14T10:42:46;7.40;99.90
7196;DHT22;3639;51.308;5.624;2023-03-14T10:45:36;7.40;99.90
7196;DHT22;3639;51.308;5.624;2023-03-14T10:51:07;7.60;99.90
7196;DHT22;3639;51.308;5.624;2023-03-14T10:53:58;7.60;99.90
7196;DHT22;3639;51.308;5.624;2023-03-14T10:56:26;7.70;99.90
7196;DHT22;3639;51.308;5.624;2023-03-14T10:58:57;7.80;99.90
7196;DHT22;3639;51.308;5.624;2023-03-14T11:01:42;7.80;99.90
7196;DHT22;3639;51.308;5.624;2023-03-14T11:06:56;7.80;99.90
7196;DHT22;3639;51.308;5.624;2023-03-14T11:12:46;8.00;99.90
7196;DHT22;3639;51.308;5.624;2023-03-14T11:23:23;7.50;99.90
7196;DHT22;3639;51.308;5.624;2023-03-14T11:29:08;7.40;99.90
7196;DHT22;3639;51.308;5.624;2023-03-14T11:31:38;7.50;99.90
7196;DHT22;3639;51.308;5.624;2023-03-14T11:34:16;7.60;99.90
7196;DHT22;3639;51.308;5.624;2023-03-14T11:36:53;7.90;99.90
7196;DHT22;3639;51.308;5.624;2023-03-14T11:39:21;8.10;99.90
7196;DHT22;3639;51.308;5.624;2023-03-14T11:41:54;8.20;99.90
7196;DHT22;3639;51.308;5.624;2023-03-14T11:44:34;8.40;99.90
7196;DHT22;3639;51.308;5.624;2023-03-14T11:52:39;8.40;99.90
7196;DHT22;3639;51.308;5.624;2023-03-14T11:55:12;8.40;99.90
7196;DHT22;3639;51.308;5.624;2023-03-14T11:57:39;8.60;99.90
7196;DHT22;3639;51.308;5.624;2023-03-14T12:00:22;8.60;99.90
7196;DHT22;3639;51.308;5.624;2023-03-14T12:02:53;8.50;99.90
7196;DHT22;3639;51.308;5.624;2023-03-14T12:08:32;8.60;99.90
7196;DHT22;3639;51.308;5.624;2023-03-14T12:11:34;8.30;99.90
7196;DHT22;3639;51.308;5.624;2023-03-14T12:14:01;7.40;99.90
7196;DHT22;3639;51.308;5.624;2023-03-14T12:16:35;6.90;99.90
7196;DHT22;3639;51.308;5.624;2023-03-14T12:24:48;6.00;99.90
7196;DHT22;3639;51.308;5.624;2023-03-14T12:27:41;5.80;99.90
7196;DHT22;3639;51.308;5.624;2023-03-14T12:32:41;6.10;99.90
7196;DHT22;3639;51.308;5.624;2023-03-14T12:40:47;6.90;99.90
7196;DHT22;3639;51.308;5.624;2023-03-14T12:43:29;6.90;99.90
7196;DHT22;3639;51.308;5.624;2023-03-14T12:48:53;7.10;99.90
7196;DHT22;3639;51.308;5.624;2023-03-14T12:51:27;7.20;99.90
7196;DHT22;3639;51.308;5.624;2023-03-14T12:57:06;7.00;99.90
7196;DHT22;3639;51.308;5.624;2023-03-14T12:59:59;7.10;99.90
7196;DHT22;3639;51.308;5.624;2023-03-14T13:02:29;7.00;99.90
7196;DHT22;3639;51.308;5.624;2023-03-14T13:05:10;7.00;99.90
7196;DHT22;3639;51.308;5.624;2023-03-14T13:10:28;7.00;99.90
7196;DHT22;3639;51.308;5.624;2023-03-14T13:13:24;7.10;99.90
7196;DHT22;3639;51.308;5.624;2023-03-14T13:16:00;7.30;99.90
7196;DHT22;3639;51.308;5.624;2023-03-14T13:18:37;7.40;99.90
7196;DHT22;3639;51.308;5.624;2023-03-14T13:21:16;7.50;99.90
7196;DHT22;3639;51.308;5.624;2023-03-14T13:24:04;7.50;99.90
7196;DHT22;3639;51.308;5.624;2023-03-14T13:26:39;7.60;99.90
7196;DHT22;3639;51.308;5.624;2023-03-14T13:31:51;7.80;99.90
7196;DHT22;3639;51.308;5.624;2023-03-14T13:34:18;7.80;99.90
7196;DHT22;3639;51.308;5.624;2023-03-14T13:36:44;7.90;99.90
7196;DHT22;3639;51.308;5.624;2023-03-14T13:39:16;7.90;99.90
7196;DHT22;3639;51.308;5.624;2023-03-14T13:41:42;8.00;99.90
7196;DHT22;3639;51.308;5.624;2023-03-14T13:44:15;8.00;99.90
7196;DHT22;3639;51.308;5.624;2023-03-14T13:46:41;8.10;99.90
7196;DHT22;3639;51.308;5.624;2023-03-14T13:49:12;8.10;99.90
7196;DHT22;3639;51.308;5.624;2023-03-14T13:51:41;8.10;99.90
7196;DHT22;3639;51.308;5.624;2023-03-14T13:54:17;8.20;99.90
7196;DHT22;3639;51.308;5.624;2023-03-14T13:56:43;8.20;99.90
7196;DHT22;3639;51.308;5.624;2023-03-14T14:01:47;8.10;99.90
7196;DHT22;3639;51.308;5.624;2023-03-14T14:04:19;8.20;99.90
7196;DHT22;3639;51.308;5.624;2023-03-14T14:06:57;8.10;99.90
7196;DHT22;3639;51.308;5.624;2023-03-14T14:09:35;8.10;99.90
7196;DHT22;3639;51.308;5.624;2023-03-14T14:12:05;8.10;99.90
7196;DHT22;3639;51.308;5.624;2023-03-14T14:14:35;8.20;99.60
7196;DHT22;3639;51.308;5.624;2023-03-14T14:17:08;8.20;98.80
7196;DHT22;3639;51.308;5.624;2023-03-14T14:19:36;8.30;97.70
7196;DHT22;3639;51.308;5.624;2023-03-14T14:22:02;8.30;97.80
7196;DHT22;3639;51.308;5.624;2023-03-14T14:24:31;8.40;97.60
7196;DHT22;3639;51.308;5.624;2023-03-14T14:27:07;8.50;96.90
7196;DHT22;3639;51.308;5.624;2023-03-14T14:29:34;8.60;97.20
7196;DHT22;3639;51.308;5.624;2023-03-14T14:34:27;8.70;96.40
7196;DHT22;3639;51.308;5.624;2023-03-14T14:36:53;8.60;96.10
7196;DHT22;3639;51.308;5.624;2023-03-14T14:39:25;8.60;96.10
7196;DHT22;3639;51.308;5.624;2023-03-14T14:41:52;8.60;96.80
7196;DHT22;3639;51.308;5.624;2023-03-14T14:44:29;8.60;94.60
7196;DHT22;3639;51.308;5.624;2023-03-14T14:46:56;8.50;94.70
7196;DHT22;3639;51.308;5.624;2023-03-14T14:49:29;8.40;94.80
7196;DHT22;3639;51.308;5.624;2023-03-14T14:52:11;8.40;94.50
7196;DHT22;3639;51.308;5.624;2023-03-14T14:54:46;8.40;96.40
7196;DHT22;3639;51.308;5.624;2023-03-14T14:57:51;8.40;95.30
7196;DHT22;3639;51.308;5.624;2023-03-14T15:00:21;8.50;96.90
7196;DHT22;3639;51.308;5.624;2023-03-14T15:02:54;8.50;96.20
7196;DHT22;3639;51.308;5.624;2023-03-14T15:05:26;8.30;95.50
7196;DHT22;3639;51.308;5.624;2023-03-14T15:07:52;8.30;94.70
7196;DHT22;3639;51.308;5.624;2023-03-14T15:10:21;8.20;94.70
7196;DHT22;3639;51.308;5.624;2023-03-14T15:12:47;8.10;94.40
7196;DHT22;3639;51.308;5.624;2023-03-14T15:15:13;8.10;95.80
7196;DHT22;3639;51.308;5.624;2023-03-14T15:17:39;8.10;94.70
7196;DHT22;3639;51.308;5.624;2023-03-14T15:20:10;8.00;92.40
7196;DHT22;3639;51.308;5.624;2023-03-14T15:22:39;7.90;92.20
7196;DHT22;3639;51.308;5.624;2023-03-14T15:25:05;7.90;93.90
7196;DHT22;3639;51.308;5.624;2023-03-14T15:27:31;7.90;93.60
7196;DHT22;3639;51.308;5.624;2023-03-14T15:29:57;7.90;94.40
7196;DHT22;3639;51.308;5.624;2023-03-14T15:32:24;7.90;93.90
7196;DHT22;3639;51.308;5.624;2023-03-14T15:34:54;7.80;94.90
7196;DHT22;3639;51.308;5.624;2023-03-14T15:37:20;7.80;94.20
7196;DHT22;3639;51.308;5.624;2023-03-14T15:39:45;7.70;94.50
7196;DHT22;3639;51.308;5.624;2023-03-14T15:42:11;7.70;94.70
7196;DHT22;3639;51.308;5.624;2023-03-14T15:44:37;7.70;93.50
7196;DHT22;3639;51.308;5.624;2023-03-14T15:47:04;7.70;93.30
7196;DHT22;3639;51.308;5.624;2023-03-14T15:49:31;7.60;94.10
7196;DHT22;3639;51.308;5.624;2023-03-14T15:51:58;7.60;93.70
7196;DHT22;3639;51.308;5.624;2023-03-14T15:54:24;7.50;93.90
7196;DHT22;3639;51.308;5.624;2023-03-14T15:56:56;7.50;93.30
7196;DHT22;3639;51.308;5.624;2023-03-14T15:59:23;7.50;94.00
7196;DHT22;3639;51.308;5.624;2023-03-14T16:01:48;7.50;94.20
7196;DHT22;3639;51.308;5.624;2023-03-14T16:04:15;7.50;93.60
7196;DHT22;3639;51.308;5.624;2023-03-14T16:06:40;7.50;93.70
7196;DHT22;3639;51.308;5.624;2023-03-14T16:09:06;7.40;93.80
7196;DHT22;3639;51.308;5.624;2023-03-14T16:11:32;7.40;94.50
7196;DHT22;3639;51.308;5.624;2023-03-14T16:13:58;7.40;93.70
7196;DHT22;3639;51.308;5.624;2023-03-14T16:16:24;7.30;95.10
7196;DHT22;3639;51.308;5.624;2023-03-14T16:18:49;7.30;95.00
7196;DHT22;3639;51.308;5.624;2023-03-14T16:21:17;7.30;95.30
7196;DHT22;3639;51.308;5.624;2023-03-14T16:23:44;7.30;94.00
7196;DHT22;3639;51.308;5.624;2023-03-14T16:26:12;7.20;93.70
7196;DHT22;3639;51.308;5.624;2023-03-14T16:28:38;7.10;92.70
7196;DHT22;3639;51.308;5.624;2023-03-14T16:31:06;7.10;93.70
7196;DHT22;3639;51.308;5.624;2023-03-14T16:33:33;7.10;93.80
7196;DHT22;3639;51.308;5.624;2023-03-14T16:36:01;7.10;94.10
7196;DHT22;3639;51.308;5.624;2023-03-14T16:38:31;7.00;94.70
7196;DHT22;3639;51.308;5.624;2023-03-14T16:41:02;7.00;94.60
7196;DHT22;3639;51.308;5.624;2023-03-14T16:43:28;7.00;93.40
7196;DHT22;3639;51.308;5.624;2023-03-14T16:45:57;7.00;93.60
7196;DHT22;3639;51.308;5.624;2023-03-14T16:48:23;6.90;92.90
7196;DHT22;3639;51.308;5.624;2023-03-14T16:50:51;6.80;93.10
7196;DHT22;3639;51.308;5.624;2023-03-14T16:53:19;6.80;92.90
7196;DHT22;3639;51.308;5.624;2023-03-14T16:55:45;6.70;93.40
7196;DHT22;3639;51.308;5.624;2023-03-14T16:58:11;6.70;93.40
7196;DHT22;3639;51.308;5.624;2023-03-14T17:00:38;6.60;93.00
7196;DHT22;3639;51.308;5.624;2023-03-14T17:03:04;6.70;93.30
7196;DHT22;3639;51.308;5.624;2023-03-14T17:05:30;6.60;93.10
7196;DHT22;3639;51.308;5.624;2023-03-14T17:07:56;6.60;93.00
7196;DHT22;3639;51.308;5.624;2023-03-14T17:10:22;6.60;93.50
7196;DHT22;3639;51.308;5.624;2023-03-14T17:12:48;6.60;93.10
7196;DHT22;3639;51.308;5.624;2023-03-14T17:15:13;6.60;92.30
7196;DHT22;3639;51.308;5.624;2023-03-14T17:17:39;6.50;92.40
7196;DHT22;3639;51.308;5.624;2023-03-14T17:20:05;6.50;92.70
7196;DHT22;3639;51.308;5.624;2023-03-14T17:22:32;6.40;92.50
7196;DHT22;3639;51.308;5.624;2023-03-14T17:24:58;6.40;92.40
7196;DHT22;3639;51.308;5.624;2023-03-14T17:27:26;6.40;93.00
7196;DHT22;3639;51.308;5.624;2023-03-14T17:29:51;6.30;92.70
7196;DHT22;3639;51.308;5.624;2023-03-14T17:32:17;6.30;93.20
7196;DHT22;3639;51.308;5.624;2023-03-14T17:34:43;6.30;93.10